sensor_id;sensor_type;location;lat;lon;timestamp;pressure;altitude;pressure_sealevel;temperature;humidity
8298;BME280;4187;42.778;23.242;2023-05-14T00:01:40;95728.53;;;14.55;100.00
8298;BME280;4187;42.778;23.242;2023-05-14T00:04:07;95733.53;;;14.58;100.00
8298;BME280;4187;42.778;23.242;2023-05-14T00:06:34;95737.81;;;14.51;100.00
8298;BME280;4187;42.778;23.242;2023-05-14T00:09:02;95724.38;;;14.53;100.00
8298;BME280;4187;42.778;23.242;2023-05-14T00:11:29;95694.56;;;14.33;100.00
8298;BME280;4187;42.778;23.242;2023-05-14T00:13:56;95723.03;;;14.49;100.00
8298;BME280;4187;42.778;23.242;2023-05-14T00:16:23;95715.88;;;14.49;100.00
8298;BME280;4187;42.778;23.242;2023-05-14T00:18:49;95725.16;;;14.45;100.00
8298;BME280;4187;42.778;23.242;2023-05-14T00:21:16;95725.66;;;14.41;100.00
8298;BME280;4187;42.778;23.242;2023-05-14T00:23:43;95715.03;;;14.41;100.00
8298;BME280;4187;42.778;23.242;2023-05-14T00:26:11;95709.19;;;14.37;100.00
8298;BME280;4187;42.778;23.242;2023-05-14T00:28:38;95707.03;;;14.32;100.00
8298;BME280;4187;42.778;23.242;2023-05-14T00:31:05;95683.13;;;14.15;100.00
8298;BME280;4187;42.778;23.242;2023-05-14T00:33:31;95691.31;;;14.21;100.00
8298;BME280;4187;42.778;23.242;2023-05-14T00:35:58;95703.63;;;14.30;100.00
8298;BME280;4187;42.778;23.242;2023-05-14T00:38:25;95627.03;;;13.84;100.00
8298;BME280;4187;42.778;23.242;2023-05-14T00:40:53;95700.69;;;14.33;100.00
8298;BME280;4187;42.778;23.242;2023-05-14T00:43:21;95703.22;;;14.35;100.00
8298;BME280;4187;42.778;23.242;2023-05-14T00:45:51;95700.03;;;14.31;99.42
8298;BME280;4187;42.778;23.242;2023-05-14T00:48:19;95697.00;;;14.26;100.00
8298;BME280;4187;42.778;23.242;2023-05-14T00:50:48;95692.31;;;14.20;99.86
8298;BME280;4187;42.778;23.242;2023-05-14T00:53:15;95685.66;;;14.16;99.48
8298;BME280;4187;42.778;23.242;2023-05-14T00:55:43;95683.50;;;14.20;99.89
8298;BME280;4187;42.778;23.242;2023-05-14T00:58:12;95679.56;;;14.24;100.00
8298;BME280;4187;42.778;23.242;2023-05-14T01:00:41;95679.06;;;14.28;100.00
8298;BME280;4187;42.778;23.242;2023-05-14T01:03:08;95682.34;;;14.22;100.00
8298;BME280;4187;42.778;23.242;2023-05-14T01:05:40;95661.81;;;13.99;99.00
8298;BME280;4187;42.778;23.242;2023-05-14T01:08:18;95682.25;;;14.06;98.23
8298;BME280;4187;42.778;23.242;2023-05-14T01:10:51;95683.03;;;13.99;97.94
8298;BME280;4187;42.778;23.242;2023-05-14T01:13:26;95668.88;;;13.90;97.91
8298;BME280;4187;42.778;23.242;2023-05-14T01:15:57;95665.88;;;13.85;97.69
8298;BME280;4187;42.778;23.242;2023-05-14T01:18:27;95690.41;;;13.87;96.83
8298;BME280;4187;42.778;23.242;2023-05-14T01:20:54;95701.56;;;13.91;95.81
8298;BME280;4187;42.778;23.242;2023-05-14T01:23:22;95707.16;;;13.88;96.21
8298;BME280;4187;42.778;23.242;2023-05-14T01:25:49;95698.53;;;13.86;94.24
8298;BME280;4187;42.778;23.242;2023-05-14T01:28:17;95698.84;;;13.83;93.87
8298;BME280;4187;42.778;23.242;2023-05-14T01:30:49;95711.50;;;13.89;94.18
8298;BME280;4187;42.778;23.242;2023-05-14T01:33:18;95714.34;;;13.95;95.38
8298;BME280;4187;42.778;23.242;2023-05-14T01:35:45;95706.97;;;14.07;96.20
8298;BME280;4187;42.778;23.242;2023-05-14T01:38:14;95704.50;;;14.05;96.17
8298;BME280;4187;42.778;23.242;2023-05-14T01:40:45;95702.59;;;13.98;95.78
8298;BME280;4187;42.778;23.242;2023-05-14T01:43:12;95700.56;;;13.92;94.93
8298;BME280;4187;42.778;23.242;2023-05-14T01:45:40;95657.66;;;13.53;94.97
8298;BME280;4187;42.778;23.242;2023-05-14T01:48:07;95706.63;;;13.84;95.01
8298;BME280;4187;42.778;23.242;2023-05-14T01:50:34;95700.22;;;13.87;94.49
8298;BME280;4187;42.778;23.242;2023-05-14T01:53:01;95710.34;;;13.91;94.24
8298;BME280;4187;42.778;23.242;2023-05-14T01:55:28;95705.09;;;13.99;95.42
8298;BME280;4187;42.778;23.242;2023-05-14T01:57:56;95705.28;;;14.06;96.83
8298;BME280;4187;42.778;23.242;2023-05-14T02:00:23;95717.06;;;14.03;95.70
8298;BME280;4187;42.778;23.242;2023-05-14T02:02:50;95715.03;;;13.97;95.68
8298;BME280;4187;42.778;23.242;2023-05-14T02:05:17;95701.19;;;13.86;95.41
8298;BME280;4187;42.778;23.242;2023-05-14T02:07:45;95715.34;;;13.94;95.53
8298;BME280;4187;42.778;23.242;2023-05-14T02:10:12;95709.03;;;13.95;96.07
8298;BME280;4187;42.778;23.242;2023-05-14T02:12:39;95713.19;;;13.98;97.09
8298;BME280;4187;42.778;23.242;2023-05-14T02:15:08;95712.22;;;13.99;98.62
8298;BME280;4187;42.778;23.242;2023-05-14T02:17:35;95716.63;;;13.90;99.36
8298;BME280;4187;42.778;23.242;2023-05-14T02:20:02;95712.63;;;13.86;99.69
8298;BME280;4187;42.778;23.242;2023-05-14T02:22:29;95704.16;;;13.83;98.86
8298;BME280;4187;42.778;23.242;2023-05-14T02:24:56;95708.41;;;13.75;98.94
8298;BME280;4187;42.778;23.242;2023-05-14T02:27:23;95704.00;;;13.66;99.17
8298;BME280;4187;42.778;23.242;2023-05-14T02:29:50;95715.69;;;13.56;99.20
8298;BME280;4187;42.778;23.242;2023-05-14T02:32:18;95721.84;;;13.56;99.64
8298;BME280;4187;42.778;23.242;2023-05-14T02:34:45;95719.69;;;13.60;99.07
8298;BME280;4187;42.778;23.242;2023-05-14T02:37:12;95686.91;;;13.26;97.57
8298;BME280;4187;42.778;23.242;2023-05-14T02:39:39;95724.47;;;13.39;97.97
8298;BME280;4187;42.778;23.242;2023-05-14T02:42:06;95724.56;;;13.47;98.26
8298;BME280;4187;42.778;23.242;2023-05-14T02:44:33;95731.38;;;13.49;97.51
8298;BME280;4187;42.778;23.242;2023-05-14T02:46:59;95728.50;;;13.43;97.70
8298;BME280;4187;42.778;23.242;2023-05-14T02:49:28;95735.22;;;13.55;98.07
8298;BME280;4187;42.778;23.242;2023-05-14T02:51:54;95726.69;;;13.61;98.05
8298;BME280;4187;42.778;23.242;2023-05-14T02:54:23;95736.69;;;13.67;96.74
8298;BME280;4187;42.778;23.242;2023-05-14T02:56:49;95744.63;;;13.67;95.46
8298;BME280;4187;42.778;23.242;2023-05-14T02:59:16;95748.13;;;13.67;95.89
8298;BME280;4187;42.778;23.242;2023-05-14T03:01:43;95743.50;;;13.69;95.93
8298;BME280;4187;42.778;23.242;2023-05-14T03:04:10;95741.53;;;13.71;96.29
8298;BME280;4187;42.778;23.242;2023-05-14T03:06:38;95745.69;;;13.74;96.56
8298;BME280;4187;42.778;23.242;2023-05-14T03:09:05;95735.91;;;13.74;95.72
8298;BME280;4187;42.778;23.242;2023-05-14T03:11:32;95739.03;;;13.70;95.81
8298;BME280;4187;42.778;23.242;2023-05-14T03:13:59;95686.00;;;13.35;95.32
8298;BME280;4187;42.778;23.242;2023-05-14T03:16:26;95718.81;;;13.51;96.58
8298;BME280;4187;42.778;23.242;2023-05-14T03:18:53;95713.59;;;13.59;96.63
8298;BME280;4187;42.778;23.242;2023-05-14T03:21:20;95722.41;;;13.68;96.96
8298;BME280;4187;42.778;23.242;2023-05-14T03:23:48;95728.31;;;13.79;95.25
8298;BME280;4187;42.778;23.242;2023-05-14T03:26:14;95725.19;;;13.84;96.22
8298;BME280;4187;42.778;23.242;2023-05-14T03:28:41;95726.94;;;13.93;96.93
8298;BME280;4187;42.778;23.242;2023-05-14T03:31:08;95712.34;;;13.71;96.46
8298;BME280;4187;42.778;23.242;2023-05-14T03:33:35;95727.03;;;13.66;96.82
8298;BME280;4187;42.778;23.242;2023-05-14T03:36:02;95708.63;;;13.47;97.54
8298;BME280;4187;42.778;23.242;2023-05-14T03:38:29;95733.50;;;13.63;97.19
8298;BME280;4187;42.778;23.242;2023-05-14T03:40:57;95730.75;;;13.55;96.96
8298;BME280;4187;42.778;23.242;2023-05-14T03:43:24;95730.00;;;13.45;98.29
8298;BME280;4187;42.778;23.242;2023-05-14T03:45:51;95728.59;;;13.51;99.35
8298;BME280;4187;42.778;23.242;2023-05-14T03:48:18;95726.84;;;13.59;100.00
8298;BME280;4187;42.778;23.242;2023-05-14T03:50:45;95731.38;;;13.67;100.00
8298;BME280;4187;42.778;23.242;2023-05-14T03:53:12;95732.41;;;13.74;100.00
8298;BME280;4187;42.778;23.242;2023-05-14T03:55:38;95740.00;;;13.69;100.00
8298;BME280;4187;42.778;23.242;2023-05-14T03:58:07;95747.59;;;13.64;100.00
8298;BME280;4187;42.778;23.242;2023-05-14T04:00:38;95740.78;;;13.61;100.00
8298;BME280;4187;42.778;23.242;2023-05-14T04:03:05;95743.72;;;13.58;100.00
8298;BME280;4187;42.778;23.242;2023-05-14T04:05:32;95739.69;;;13.54;100.00
8298;BME280;4187;42.778;23.242;2023-05-14T04:07:59;95710.53;;;13.37;100.00
8298;BME280;4187;42.778;23.242;2023-05-14T04:10:26;95743.06;;;13.56;100.00
8298;BME280;4187;42.778;23.242;2023-05-14T04:12:53;95747.44;;;13.48;100.00
8298;BME280;4187;42.778;23.242;2023-05-14T04:15:22;95746.91;;;13.44;100.00
8298;BME280;4187;42.778;23.242;2023-05-14T04:17:49;95748.28;;;13.48;100.00
8298;BME280;4187;42.778;23.242;2023-05-14T04:20:15;95737.28;;;13.43;100.00
8298;BME280;4187;42.778;23.242;2023-05-14T04:22:42;95751.91;;;13.47;100.00
8298;BME280;4187;42.778;23.242;2023-05-14T04:25:10;95753.94;;;13.36;100.00
8298;BME280;4187;42.778;23.242;2023-05-14T04:27:36;95736.50;;;13.15;100.00
8298;BME280;4187;42.778;23.242;2023-05-14T04:30:04;95749.63;;;13.35;100.00
8298;BME280;4187;42.778;23.242;2023-05-14T04:32:34;95750.53;;;13.26;100.00
8298;BME280;4187;42.778;23.242;2023-05-14T04:35:01;95762.94;;;13.25;100.00
8298;BME280;4187;42.778;23.242;2023-05-14T04:37:28;95777.63;;;13.19;100.00
8298;BME280;4187;42.778;23.242;2023-05-14T04:39:55;95776.16;;;13.07;100.00
8298;BME280;4187;42.778;23.242;2023-05-14T04:42:22;95778.66;;;13.09;100.00
8298;BME280;4187;42.778;23.242;2023-05-14T04:44:49;95789.50;;;13.15;100.00
8298;BME280;4187;42.778;23.242;2023-05-14T04:47:16;95798.69;;;13.21;100.00
8298;BME280;4187;42.778;23.242;2023-05-14T04:49:45;95801.75;;;13.16;100.00
8298;BME280;4187;42.778;23.242;2023-05-14T04:52:12;95812.97;;;13.10;100.00
8298;BME280;4187;42.778;23.242;2023-05-14T04:54:39;95798.88;;;13.37;100.00
8298;BME280;4187;42.778;23.242;2023-05-14T04:57:06;95815.78;;;13.54;100.00
8298;BME280;4187;42.778;23.242;2023-05-14T04:59:32;95813.50;;;13.59;100.00
8298;BME280;4187;42.778;23.242;2023-05-14T05:01:59;95825.41;;;13.55;100.00
8298;BME280;4187;42.778;23.242;2023-05-14T05:04:26;95824.34;;;13.48;100.00
8298;BME280;4187;42.778;23.242;2023-05-14T05:06:54;95835.53;;;13.42;100.00
8298;BME280;4187;42.778;23.242;2023-05-14T05:09:21;95828.06;;;13.28;100.00
8298;BME280;4187;42.778;23.242;2023-05-14T05:11:48;95839.91;;;13.33;100.00
8298;BME280;4187;42.778;23.242;2023-05-14T05:14:15;95849.38;;;13.36;100.00
8298;BME280;4187;42.778;23.242;2023-05-14T05:16:41;95848.13;;;13.30;100.00
8298;BME280;4187;42.778;23.242;2023-05-14T05:19:09;95852.25;;;13.25;100.00
8298;BME280;4187;42.778;23.242;2023-05-14T05:21:36;95820.78;;;13.02;100.00
8298;BME280;4187;42.778;23.242;2023-05-14T05:24:06;95856.31;;;13.19;100.00
8298;BME280;4187;42.778;23.242;2023-05-14T05:26:33;95851.44;;;13.14;100.00
8298;BME280;4187;42.778;23.242;2023-05-14T05:29:01;95831.66;;;13.09;100.00
8298;BME280;4187;42.778;23.242;2023-05-14T05:31:28;95845.75;;;13.09;100.00
8298;BME280;4187;42.778;23.242;2023-05-14T05:33:55;95842.97;;;13.11;100.00
8298;BME280;4187;42.778;23.242;2023-05-14T05:36:22;95848.13;;;13.03;100.00
8298;BME280;4187;42.778;23.242;2023-05-14T05:38:49;95830.91;;;12.80;100.00
8298;BME280;4187;42.778;23.242;2023-05-14T05:41:17;95838.84;;;12.80;100.00
8298;BME280;4187;42.778;23.242;2023-05-14T05:43:44;95856.03;;;12.66;100.00
8298;BME280;4187;42.778;23.242;2023-05-14T05:46:11;95847.41;;;12.54;100.00
8298;BME280;4187;42.778;23.242;2023-05-14T05:48:39;95850.09;;;12.45;100.00
8298;BME280;4187;42.778;23.242;2023-05-14T05:51:05;95855.78;;;12.50;100.00
8298;BME280;4187;42.778;23.242;2023-05-14T05:53:32;95862.22;;;12.47;100.00
8298;BME280;4187;42.778;23.242;2023-05-14T05:55:59;95863.34;;;12.45;100.00
8298;BME280;4187;42.778;23.242;2023-05-14T05:58:27;95860.28;;;12.30;100.00
8298;BME280;4187;42.778;23.242;2023-05-14T06:00:54;95855.53;;;12.34;100.00
8298;BME280;4187;42.778;23.242;2023-05-14T06:03:22;95842.19;;;12.26;100.00
8298;BME280;4187;42.778;23.242;2023-05-14T06:05:48;95847.88;;;12.31;100.00
8298;BME280;4187;42.778;23.242;2023-05-14T06:08:16;95844.41;;;12.21;100.00
8298;BME280;4187;42.778;23.242;2023-05-14T06:10:43;95852.22;;;12.22;100.00
8298;BME280;4187;42.778;23.242;2023-05-14T06:13:10;95856.41;;;12.15;100.00
8298;BME280;4187;42.778;23.242;2023-05-14T06:15:38;95852.22;;;12.13;100.00
8298;BME280;4187;42.778;23.242;2023-05-14T06:18:05;95824.09;;;11.92;100.00
8298;BME280;4187;42.778;23.242;2023-05-14T06:20:33;95857.53;;;12.13;100.00
8298;BME280;4187;42.778;23.242;2023-05-14T06:22:59;95846.25;;;12.11;100.00
8298;BME280;4187;42.778;23.242;2023-05-14T06:25:26;95852.91;;;12.15;100.00
8298;BME280;4187;42.778;23.242;2023-05-14T06:27:53;95855.84;;;12.12;100.00
8298;BME280;4187;42.778;23.242;2023-05-14T06:30:20;95854.59;;;12.06;100.00
8298;BME280;4187;42.778;23.242;2023-05-14T06:32:48;95865.16;;;12.06;100.00
8298;BME280;4187;42.778;23.242;2023-05-14T06:35:16;95857.66;;;12.02;100.00
8298;BME280;4187;42.778;23.242;2023-05-14T06:37:43;95864.63;;;12.03;100.00
8298;BME280;4187;42.778;23.242;2023-05-14T06:40:10;95870.03;;;12.01;100.00
8298;BME280;4187;42.778;23.242;2023-05-14T06:42:37;95860.03;;;12.05;100.00
8298;BME280;4187;42.778;23.242;2023-05-14T06:45:05;95857.94;;;11.98;100.00
8298;BME280;4187;42.778;23.242;2023-05-14T06:47:32;95846.66;;;11.96;100.00
8298;BME280;4187;42.778;23.242;2023-05-14T06:50:00;95853.06;;;11.94;100.00
8298;BME280;4187;42.778;23.242;2023-05-14T06:52:27;95839.03;;;11.84;100.00
8298;BME280;4187;42.778;23.242;2023-05-14T06:54:54;95844.84;;;11.87;100.00
8298;BME280;4187;42.778;23.242;2023-05-14T06:57:21;95856.81;;;11.72;100.00
8298;BME280;4187;42.778;23.242;2023-05-14T06:59:47;95852.63;;;11.70;100.00
8298;BME280;4187;42.778;23.242;2023-05-14T07:02:14;95860.56;;;11.70;100.00
8298;BME280;4187;42.778;23.242;2023-05-14T07:04:41;95867.41;;;11.72;100.00
8298;BME280;4187;42.778;23.242;2023-05-14T07:07:09;95872.41;;;11.75;100.00
8298;BME280;4187;42.778;23.242;2023-05-14T07:09:39;95866.53;;;11.81;100.00
8298;BME280;4187;42.778;23.242;2023-05-14T07:12:07;95871.44;;;11.86;100.00
8298;BME280;4187;42.778;23.242;2023-05-14T07:14:34;95881.44;;;11.82;100.00
8298;BME280;4187;42.778;23.242;2023-05-14T07:17:00;95877.16;;;11.91;100.00
8298;BME280;4187;42.778;23.242;2023-05-14T07:19:27;95882.16;;;12.04;100.00
8298;BME280;4187;42.778;23.242;2023-05-14T07:21:55;95880.78;;;11.99;100.00
8298;BME280;4187;42.778;23.242;2023-05-14T07:24:23;95880.22;;;11.96;100.00
8298;BME280;4187;42.778;23.242;2023-05-14T07:26:50;95865.31;;;11.95;100.00
8298;BME280;4187;42.778;23.242;2023-05-14T07:29:16;95876.72;;;11.95;100.00
8298;BME280;4187;42.778;23.242;2023-05-14T07:31:43;95881.59;;;11.90;100.00
8298;BME280;4187;42.778;23.242;2023-05-14T07:34:10;95872.28;;;11.86;100.00
8298;BME280;4187;42.778;23.242;2023-05-14T07:36:37;95873.25;;;11.85;100.00
8298;BME280;4187;42.778;23.242;2023-05-14T07:39:04;95877.00;;;11.83;100.00
8298;BME280;4187;42.778;23.242;2023-05-14T07:41:32;95882.03;;;11.86;100.00
8298;BME280;4187;42.778;23.242;2023-05-14T07:43:59;95889.25;;;11.84;100.00
8298;BME280;4187;42.778;23.242;2023-05-14T07:46:26;95886.47;;;11.85;100.00
8298;BME280;4187;42.778;23.242;2023-05-14T07:48:52;95875.63;;;11.88;100.00
8298;BME280;4187;42.778;23.242;2023-05-14T07:51:20;95876.16;;;11.82;100.00
8298;BME280;4187;42.778;23.242;2023-05-14T07:53:47;95874.34;;;11.83;100.00
8298;BME280;4187;42.778;23.242;2023-05-14T07:56:14;95876.84;;;11.75;100.00
8298;BME280;4187;42.778;23.242;2023-05-14T07:58:42;95805.94;;;11.21;100.00
8298;BME280;4187;42.778;23.242;2023-05-14T08:01:09;95893.22;;;11.59;100.00
8298;BME280;4187;42.778;23.242;2023-05-14T08:03:37;95869.94;;;11.43;100.00
8298;BME280;4187;42.778;23.242;2023-05-14T08:06:04;95894.59;;;11.54;100.00
8298;BME280;4187;42.778;23.242;2023-05-14T08:08:31;95884.56;;;11.57;100.00
8298;BME280;4187;42.778;23.242;2023-05-14T08:10:57;95891.69;;;11.66;100.00
8298;BME280;4187;42.778;23.242;2023-05-14T08:13:24;95895.88;;;11.59;100.00
8298;BME280;4187;42.778;23.242;2023-05-14T08:15:53;95879.28;;;11.48;100.00
8298;BME280;4187;42.778;23.242;2023-05-14T08:18:19;95870.94;;;11.52;100.00
8298;BME280;4187;42.778;23.242;2023-05-14T08:20:46;95817.91;;;11.34;100.00
8298;BME280;4187;42.778;23.242;2023-05-14T08:23:14;95856.22;;;11.59;100.00
8298;BME280;4187;42.778;23.242;2023-05-14T08:25:40;95870.69;;;11.65;100.00
8298;BME280;4187;42.778;23.242;2023-05-14T08:28:07;95856.47;;;11.56;100.00
8298;BME280;4187;42.778;23.242;2023-05-14T08:30:34;95861.34;;;11.61;100.00
8298;BME280;4187;42.778;23.242;2023-05-14T08:33:02;95857.47;;;11.65;100.00
8298;BME280;4187;42.778;23.242;2023-05-14T08:35:29;95859.41;;;11.63;100.00
8298;BME280;4187;42.778;23.242;2023-05-14T08:37:56;95852.72;;;11.68;100.00
8298;BME280;4187;42.778;23.242;2023-05-14T08:40:22;95851.81;;;11.69;100.00
8298;BME280;4187;42.778;23.242;2023-05-14T08:42:50;95843.31;;;11.75;100.00
8298;BME280;4187;42.778;23.242;2023-05-14T08:45:18;95793.44;;;11.52;100.00
8298;BME280;4187;42.778;23.242;2023-05-14T08:47:47;95838.41;;;11.61;100.00
8298;BME280;4187;42.778;23.242;2023-05-14T08:50:16;95838.94;;;11.46;100.00
8298;BME280;4187;42.778;23.242;2023-05-14T08:52:44;95855.75;;;11.45;100.00
8298;BME280;4187;42.778;23.242;2023-05-14T08:55:11;95854.06;;;11.43;100.00
8298;BME280;4187;42.778;23.242;2023-05-14T08:57:38;95857.66;;;11.33;100.00
8298;BME280;4187;42.778;23.242;2023-05-14T09:00:06;95863.41;;;11.38;100.00
8298;BME280;4187;42.778;23.242;2023-05-14T09:02:36;95854.38;;;11.40;100.00
8298;BME280;4187;42.778;23.242;2023-05-14T09:05:05;95859.09;;;11.47;100.00
8298;BME280;4187;42.778;23.242;2023-05-14T09:07:35;95828.44;;;11.25;100.00
8298;BME280;4187;42.778;23.242;2023-05-14T09:10:03;95851.16;;;11.37;100.00
8298;BME280;4187;42.778;23.242;2023-05-14T09:12:30;95813.16;;;11.19;100.00
8298;BME280;4187;42.778;23.242;2023-05-14T09:14:57;95827.00;;;11.51;100.00
8298;BME280;4187;42.778;23.242;2023-05-14T09:17:25;95820.72;;;11.52;100.00
8298;BME280;4187;42.778;23.242;2023-05-14T09:19:52;95838.69;;;11.68;100.00
8298;BME280;4187;42.778;23.242;2023-05-14T09:22:19;95822.66;;;11.60;100.00
8298;BME280;4187;42.778;23.242;2023-05-14T09:25:01;95841.75;;;11.54;100.00
8298;BME280;4187;42.778;23.242;2023-05-14T09:27:29;95822.66;;;11.50;100.00
8298;BME280;4187;42.778;23.242;2023-05-14T09:30:03;95826.16;;;11.60;100.00
8298;BME280;4187;42.778;23.242;2023-05-14T09:32:35;95805.25;;;11.57;100.00
8298;BME280;4187;42.778;23.242;2023-05-14T09:35:11;95781.91;;;11.43;100.00
8298;BME280;4187;42.778;23.242;2023-05-14T09:37:42;95813.50;;;11.54;100.00
8298;BME280;4187;42.778;23.242;2023-05-14T09:40:12;95815.03;;;11.57;100.00
8298;BME280;4187;42.778;23.242;2023-05-14T09:42:39;95808.50;;;11.51;100.00
8298;BME280;4187;42.778;23.242;2023-05-14T09:45:08;95819.75;;;11.53;100.00
8298;BME280;4187;42.778;23.242;2023-05-14T09:47:35;95813.88;;;11.50;100.00
8298;BME280;4187;42.778;23.242;2023-05-14T09:50:02;95825.31;;;11.50;100.00
8298;BME280;4187;42.778;23.242;2023-05-14T09:52:29;95814.16;;;11.47;100.00
8298;BME280;4187;42.778;23.242;2023-05-14T09:54:56;95809.03;;;11.55;100.00
8298;BME280;4187;42.778;23.242;2023-05-14T09:57:27;95805.84;;;11.51;100.00
8298;BME280;4187;42.778;23.242;2023-05-14T09:59:53;95803.59;;;11.47;100.00
8298;BME280;4187;42.778;23.242;2023-05-14T10:02:22;95793.44;;;11.52;100.00
8298;BME280;4187;42.778;23.242;2023-05-14T10:04:51;95792.59;;;11.41;100.00
8298;BME280;4187;42.778;23.242;2023-05-14T10:07:22;95799.16;;;11.47;100.00
8298;BME280;4187;42.778;23.242;2023-05-14T10:09:56;95800.13;;;11.56;100.00
8298;BME280;4187;42.778;23.242;2023-05-14T10:12:28;95775.53;;;11.65;100.00
8298;BME280;4187;42.778;23.242;2023-05-14T10:15:00;95783.84;;;11.60;100.00
8298;BME280;4187;42.778;23.242;2023-05-14T10:17:30;95759.38;;;11.68;100.00
8298;BME280;4187;42.778;23.242;2023-05-14T10:19:58;95704.41;;;11.33;100.00
8298;BME280;4187;42.778;23.242;2023-05-14T10:22:30;95754.66;;;11.62;100.00
8298;BME280;4187;42.778;23.242;2023-05-14T10:24:59;95765.50;;;11.59;100.00
8298;BME280;4187;42.778;23.242;2023-05-14T10:27:28;95790.66;;;11.53;100.00
8298;BME280;4187;42.778;23.242;2023-05-14T10:29:56;95778.97;;;11.36;100.00
8298;BME280;4187;42.778;23.242;2023-05-14T10:32:24;95786.91;;;11.36;100.00
8298;BME280;4187;42.778;23.242;2023-05-14T10:34:51;95791.19;;;11.28;100.00
8298;BME280;4187;42.778;23.242;2023-05-14T10:37:21;95783.81;;;11.22;100.00
8298;BME280;4187;42.778;23.242;2023-05-14T10:39:49;95789.81;;;11.24;100.00
8298;BME280;4187;42.778;23.242;2023-05-14T10:42:18;95769.38;;;11.26;100.00
8298;BME280;4187;42.778;23.242;2023-05-14T10:44:51;95762.13;;;11.28;100.00
8298;BME280;4187;42.778;23.242;2023-05-14T10:47:27;95724.84;;;11.12;100.00
8298;BME280;4187;42.778;23.242;2023-05-14T10:49:56;95730.41;;;11.09;100.00
8298;BME280;4187;42.778;23.242;2023-05-14T10:52:24;95774.50;;;11.18;100.00
8298;BME280;4187;42.778;23.242;2023-05-14T10:54:52;95780.63;;;11.18;100.00
8298;BME280;4187;42.778;23.242;2023-05-14T10:57:21;95786.28;;;11.14;100.00
8298;BME280;4187;42.778;23.242;2023-05-14T10:59:51;95774.28;;;10.91;100.00
8298;BME280;4187;42.778;23.242;2023-05-14T11:02:21;95788.13;;;11.13;100.00
8298;BME280;4187;42.778;23.242;2023-05-14T11:04:53;95787.16;;;11.24;100.00
8298;BME280;4187;42.778;23.242;2023-05-14T11:07:23;95767.56;;;11.36;100.00
8298;BME280;4187;42.778;23.242;2023-05-14T11:09:50;95773.94;;;11.33;100.00
8298;BME280;4187;42.778;23.242;2023-05-14T11:12:17;95790.34;;;11.27;100.00
8298;BME280;4187;42.778;23.242;2023-05-14T11:14:44;95795.78;;;11.26;100.00
8298;BME280;4187;42.778;23.242;2023-05-14T11:17:13;95783.84;;;11.31;100.00
8298;BME280;4187;42.778;23.242;2023-05-14T11:19:42;95771.59;;;11.30;100.00
8298;BME280;4187;42.778;23.242;2023-05-14T11:22:09;95767.97;;;11.41;100.00
8298;BME280;4187;42.778;23.242;2023-05-14T11:24:38;95765.63;;;11.38;100.00
8298;BME280;4187;42.778;23.242;2023-05-14T11:27:06;95756.44;;;11.42;100.00
8298;BME280;4187;42.778;23.242;2023-05-14T11:29:34;95749.22;;;11.54;100.00
8298;BME280;4187;42.778;23.242;2023-05-14T11:32:01;95749.63;;;11.68;100.00
8298;BME280;4187;42.778;23.242;2023-05-14T11:34:30;95753.97;;;11.69;100.00
8298;BME280;4187;42.778;23.242;2023-05-14T11:36:57;95750.63;;;11.67;100.00
8298;BME280;4187;42.778;23.242;2023-05-14T11:39:23;95746.16;;;11.68;100.00
8298;BME280;4187;42.778;23.242;2023-05-14T11:41:50;95750.06;;;11.73;100.00
8298;BME280;4187;42.778;23.242;2023-05-14T11:44:17;95746.44;;;11.74;100.00
8298;BME280;4187;42.778;23.242;2023-05-14T11:46:53;95746.84;;;11.79;100.00
8298;BME280;4187;42.778;23.242;2023-05-14T11:49:20;95745.63;;;11.83;100.00
8298;BME280;4187;42.778;23.242;2023-05-14T11:51:49;95751.19;;;11.71;100.00
8298;BME280;4187;42.778;23.242;2023-05-14T11:54:16;95745.91;;;11.80;100.00
8298;BME280;4187;42.778;23.242;2023-05-14T11:56:49;95723.88;;;11.89;100.00
8298;BME280;4187;42.778;23.242;2023-05-14T11:59:16;95720.53;;;11.87;100.00
8298;BME280;4187;42.778;23.242;2023-05-14T12:01:44;95723.34;;;11.86;100.00
8298;BME280;4187;42.778;23.242;2023-05-14T12:04:11;95691.88;;;11.83;100.00
8298;BME280;4187;42.778;23.242;2023-05-14T12:06:38;95723.84;;;12.09;100.00
8298;BME280;4187;42.778;23.242;2023-05-14T12:09:07;95722.59;;;12.03;100.00
8298;BME280;4187;42.778;23.242;2023-05-14T12:11:35;95716.66;;;11.91;100.00
8298;BME280;4187;42.778;23.242;2023-05-14T12:14:09;95714.84;;;11.92;100.00
8298;BME280;4187;42.778;23.242;2023-05-14T12:16:39;95701.91;;;11.89;100.00
8298;BME280;4187;42.778;23.242;2023-05-14T12:19:07;95696.16;;;12.03;100.00
8298;BME280;4187;42.778;23.242;2023-05-14T12:21:35;95688.75;;;12.07;100.00
8298;BME280;4187;42.778;23.242;2023-05-14T12:24:02;95678.97;;;12.17;100.00
8298;BME280;4187;42.778;23.242;2023-05-14T12:26:32;95681.63;;;12.17;100.00
8298;BME280;4187;42.778;23.242;2023-05-14T12:29:01;95670.75;;;12.20;100.00
8298;BME280;4187;42.778;23.242;2023-05-14T12:31:28;95660.72;;;12.23;100.00
8298;BME280;4187;42.778;23.242;2023-05-14T12:33:55;95681.16;;;12.31;100.00
8298;BME280;4187;42.778;23.242;2023-05-14T12:36:22;95689.66;;;12.34;100.00
8298;BME280;4187;42.778;23.242;2023-05-14T12:38:49;95670.06;;;12.27;100.00
8298;BME280;4187;42.778;23.242;2023-05-14T12:41:16;95633.50;;;12.04;100.00
8298;BME280;4187;42.778;23.242;2023-05-14T12:43:46;95658.22;;;12.22;100.00
8298;BME280;4187;42.778;23.242;2023-05-14T12:46:13;95670.56;;;12.31;100.00
8298;BME280;4187;42.778;23.242;2023-05-14T12:48:40;95684.06;;;12.37;100.00
8298;BME280;4187;42.778;23.242;2023-05-14T12:51:07;95666.78;;;12.33;100.00
8298;BME280;4187;42.778;23.242;2023-05-14T12:53:34;95661.09;;;12.38;100.00
8298;BME280;4187;42.778;23.242;2023-05-14T12:56:01;95659.41;;;12.37;100.00
8298;BME280;4187;42.778;23.242;2023-05-14T12:58:28;95658.56;;;12.36;100.00
8298;BME280;4187;42.778;23.242;2023-05-14T13:00:56;95647.75;;;12.30;100.00
8298;BME280;4187;42.778;23.242;2023-05-14T13:03:23;95666.78;;;12.43;100.00
8298;BME280;4187;42.778;23.242;2023-05-14T13:05:50;95656.84;;;12.45;100.00